sensor_id;sensor_type;location;lat;lon;timestamp;temperature;humidity
4366;DHT22;2196;47.422;9.656;2023-12-14T00:01:12;6.20;99.90
4366;DHT22;2196;47.422;9.656;2023-12-14T00:03:39;6.20;99.90
4366;DHT22;2196;47.422;9.656;2023-12-14T00:06:08;6.20;99.90
4366;DHT22;2196;47.422;9.656;2023-12-14T00:08:35;6.20;99.90
4366;DHT22;2196;47.422;9.656;2023-12-14T00:11:04;6.20;99.90
4366;DHT22;2196;47.422;9.656;2023-12-14T00:13:31;6.20;99.90
4366;DHT22;2196;47.422;9.656;2023-12-14T00:15:58;6.10;99.90
4366;DHT22;2196;47.422;9.656;2023-12-14T00:18:25;6.10;99.90
4366;DHT22;2196;47.422;9.656;2023-12-14T00:20:52;6.30;99.90
4366;DHT22;2196;47.422;9.656;2023-12-14T00:23:21;6.30;99.90
4366;DHT22;2196;47.422;9.656;2023-12-14T00:25:48;6.30;99.90
4366;DHT22;2196;47.422;9.656;2023-12-14T00:28:15;6.30;99.90
4366;DHT22;2196;47.422;9.656;2023-12-14T00:30:42;6.30;99.90
4366;DHT22;2196;47.422;9.656;2023-12-14T00:33:09;6.20;99.90
4366;DHT22;2196;47.422;9.656;2023-12-14T00:35:36;6.20;99.90
4366;DHT22;2196;47.422;9.656;2023-12-14T00:38:03;6.30;99.90
4366;DHT22;2196;47.422;9.656;2023-12-14T00:40:31;6.30;99.90
4366;DHT22;2196;47.422;9.656;2023-12-14T00:42:58;6.20;99.90
4366;DHT22;2196;47.422;9.656;2023-12-14T00:45:25;6.30;99.90
4366;DHT22;2196;47.422;9.656;2023-12-14T00:47:52;6.30;99.90
4366;DHT22;2196;47.422;9.656;2023-12-14T00:50:19;6.20;99.90
4366;DHT22;2196;47.422;9.656;2023-12-14T00:52:46;6.20;99.90
4366;DHT22;2196;47.422;9.656;2023-12-14T00:55:13;6.20;99.90
4366;DHT22;2196;47.422;9.656;2023-12-14T00:57:41;6.20;99.90
4366;DHT22;2196;47.422;9.656;2023-12-14T01:00:09;6.10;99.90
4366;DHT22;2196;47.422;9.656;2023-12-14T01:02:38;6.10;99.90
4366;DHT22;2196;47.422;9.656;2023-12-14T01:05:05;6.10;99.90
4366;DHT22;2196;47.422;9.656;2023-12-14T01:07:32;6.10;99.90
4366;DHT22;2196;47.422;9.656;2023-12-14T01:09:59;6.10;99.90
4366;DHT22;2196;47.422;9.656;2023-12-14T01:12:26;6.20;99.90
4366;DHT22;2196;47.422;9.656;2023-12-14T01:14:54;6.20;99.90
4366;DHT22;2196;47.422;9.656;2023-12-14T01:17:21;6.20;99.90
4366;DHT22;2196;47.422;9.656;2023-12-14T01:19:48;6.20;99.90
4366;DHT22;2196;47.422;9.656;2023-12-14T01:22:15;6.20;99.90
4366;DHT22;2196;47.422;9.656;2023-12-14T01:24:42;6.20;99.90
4366;DHT22;2196;47.422;9.656;2023-12-14T01:27:09;6.20;99.90
4366;DHT22;2196;47.422;9.656;2023-12-14T01:29:39;6.20;99.90
4366;DHT22;2196;47.422;9.656;2023-12-14T01:32:07;6.20;99.90
4366;DHT22;2196;47.422;9.656;2023-12-14T01:34:34;6.20;99.90
4366;DHT22;2196;47.422;9.656;2023-12-14T01:37:01;6.10;99.90
4366;DHT22;2196;47.422;9.656;2023-12-14T01:39:28;6.20;99.90
4366;DHT22;2196;47.422;9.656;2023-12-14T01:41:55;6.20;99.90
4366;DHT22;2196;47.422;9.656;2023-12-14T01:44:22;6.20;99.90
4366;DHT22;2196;47.422;9.656;2023-12-14T01:46:49;6.20;99.90
4366;DHT22;2196;47.422;9.656;2023-12-14T01:49:17;6.30;99.90
4366;DHT22;2196;47.422;9.656;2023-12-14T01:51:47;6.20;99.90
4366;DHT22;2196;47.422;9.656;2023-12-14T01:54:15;6.20;99.90
4366;DHT22;2196;47.422;9.656;2023-12-14T01:56:42;6.10;99.90
4366;DHT22;2196;47.422;9.656;2023-12-14T01:59:08;6.20;99.90
4366;DHT22;2196;47.422;9.656;2023-12-14T02:01:39;6.20;99.90
4366;DHT22;2196;47.422;9.656;2023-12-14T02:04:07;6.20;99.90
4366;DHT22;2196;47.422;9.656;2023-12-14T02:06:35;6.20;99.90
4366;DHT22;2196;47.422;9.656;2023-12-14T02:09:02;6.20;99.90
4366;DHT22;2196;47.422;9.656;2023-12-14T02:11:29;6.20;99.90
4366;DHT22;2196;47.422;9.656;2023-12-14T02:13:56;6.30;99.90
4366;DHT22;2196;47.422;9.656;2023-12-14T02:16:23;6.20;99.90
4366;DHT22;2196;47.422;9.656;2023-12-14T02:18:50;6.10;99.90
4366;DHT22;2196;47.422;9.656;2023-12-14T02:21:17;6.10;99.90
4366;DHT22;2196;47.422;9.656;2023-12-14T02:23:47;6.20;99.90
4366;DHT22;2196;47.422;9.656;2023-12-14T02:26:14;6.20;99.90
4366;DHT22;2196;47.422;9.656;2023-12-14T02:28:41;6.20;99.90
4366;DHT22;2196;47.422;9.656;2023-12-14T02:31:08;6.20;99.90
4366;DHT22;2196;47.422;9.656;2023-12-14T02:33:35;6.10;99.90
4366;DHT22;2196;47.422;9.656;2023-12-14T02:36:02;6.10;99.90
4366;DHT22;2196;47.422;9.656;2023-12-14T02:38:29;6.00;99.90
4366;DHT22;2196;47.422;9.656;2023-12-14T02:40:58;6.00;99.90
4366;DHT22;2196;47.422;9.656;2023-12-14T02:43:25;6.00;99.90
4366;DHT22;2196;47.422;9.656;2023-12-14T02:45:52;6.00;99.90
4366;DHT22;2196;47.422;9.656;2023-12-14T02:48:20;6.00;99.90
4366;DHT22;2196;47.422;9.656;2023-12-14T02:50:47;6.00;99.90
4366;DHT22;2196;47.422;9.656;2023-12-14T02:53:14;6.00;99.90
4366;DHT22;2196;47.422;9.656;2023-12-14T02:55:41;6.00;99.90
4366;DHT22;2196;47.422;9.656;2023-12-14T02:58:10;6.00;99.90
4366;DHT22;2196;47.422;9.656;2023-12-14T03:00:37;6.00;99.90
4366;DHT22;2196;47.422;9.656;2023-12-14T03:03:04;6.00;99.90
4366;DHT22;2196;47.422;9.656;2023-12-14T03:05:31;6.00;99.90
4366;DHT22;2196;47.422;9.656;2023-12-14T03:07:58;6.10;99.90
4366;DHT22;2196;47.422;9.656;2023-12-14T03:10:25;6.00;99.90
4366;DHT22;2196;47.422;9.656;2023-12-14T03:12:51;6.00;99.90
4366;DHT22;2196;47.422;9.656;2023-12-14T03:15:20;6.00;99.90
4366;DHT22;2196;47.422;9.656;2023-12-14T03:17:47;6.00;99.90
4366;DHT22;2196;47.422;9.656;2023-12-14T03:20:15;6.00;99.90
4366;DHT22;2196;47.422;9.656;2023-12-14T03:22:42;6.00;99.90
4366;DHT22;2196;47.422;9.656;2023-12-14T03:25:09;6.00;99.90
4366;DHT22;2196;47.422;9.656;2023-12-14T03:27:36;6.00;99.90
4366;DHT22;2196;47.422;9.656;2023-12-14T03:30:04;6.00;99.90
4366;DHT22;2196;47.422;9.656;2023-12-14T03:32:37;6.00;99.90
4366;DHT22;2196;47.422;9.656;2023-12-14T03:35:05;6.00;99.90
4366;DHT22;2196;47.422;9.656;2023-12-14T03:37:34;5.90;99.90
4366;DHT22;2196;47.422;9.656;2023-12-14T03:40:01;5.90;99.90
4366;DHT22;2196;47.422;9.656;2023-12-14T03:42:29;5.90;99.90
4366;DHT22;2196;47.422;9.656;2023-12-14T03:44:56;6.00;99.90
4366;DHT22;2196;47.422;9.656;2023-12-14T03:47:23;5.90;99.90
4366;DHT22;2196;47.422;9.656;2023-12-14T03:49:51;5.90;99.90
4366;DHT22;2196;47.422;9.656;2023-12-14T03:52:18;5.80;99.90
4366;DHT22;2196;47.422;9.656;2023-12-14T03:54:45;5.90;99.90
4366;DHT22;2196;47.422;9.656;2023-12-14T03:57:12;5.90;99.90
4366;DHT22;2196;47.422;9.656;2023-12-14T03:59:39;5.80;99.90
4366;DHT22;2196;47.422;9.656;2023-12-14T04:02:07;5.80;99.90
4366;DHT22;2196;47.422;9.656;2023-12-14T04:04:34;5.80;99.90
4366;DHT22;2196;47.422;9.656;2023-12-14T04:07:02;5.90;99.90
4366;DHT22;2196;47.422;9.656;2023-12-14T04:09:29;5.80;99.90
4366;DHT22;2196;47.422;9.656;2023-12-14T04:11:57;5.90;99.90
4366;DHT22;2196;47.422;9.656;2023-12-14T04:14:23;5.90;99.90
4366;DHT22;2196;47.422;9.656;2023-12-14T04:16:50;5.90;99.90
4366;DHT22;2196;47.422;9.656;2023-12-14T04:19:17;5.90;99.90
4366;DHT22;2196;47.422;9.656;2023-12-14T04:21:44;5.90;99.90
4366;DHT22;2196;47.422;9.656;2023-12-14T04:24:13;5.80;99.90
4366;DHT22;2196;47.422;9.656;2023-12-14T04:26:40;5.80;99.90
4366;DHT22;2196;47.422;9.656;2023-12-14T04:29:07;5.80;99.90
4366;DHT22;2196;47.422;9.656;2023-12-14T04:31:34;5.80;99.90
4366;DHT22;2196;47.422;9.656;2023-12-14T04:34:01;5.90;99.90
4366;DHT22;2196;47.422;9.656;2023-12-14T04:36:28;5.90;99.90
4366;DHT22;2196;47.422;9.656;2023-12-14T04:38:55;5.80;99.90
4366;DHT22;2196;47.422;9.656;2023-12-14T04:41:23;5.80;99.90
4366;DHT22;2196;47.422;9.656;2023-12-14T04:43:50;5.80;99.90
4366;DHT22;2196;47.422;9.656;2023-12-14T04:46:17;5.70;99.90
4366;DHT22;2196;47.422;9.656;2023-12-14T04:48:44;5.80;99.90
4366;DHT22;2196;47.422;9.656;2023-12-14T04:51:12;5.80;99.90
4366;DHT22;2196;47.422;9.656;2023-12-14T04:53:39;5.70;99.90
4366;DHT22;2196;47.422;9.656;2023-12-14T04:56:10;5.70;99.90
4366;DHT22;2196;47.422;9.656;2023-12-14T04:58:39;5.70;99.90
4366;DHT22;2196;47.422;9.656;2023-12-14T05:01:06;5.70;99.90
4366;DHT22;2196;47.422;9.656;2023-12-14T05:03:34;5.70;99.90
4366;DHT22;2196;47.422;9.656;2023-12-14T05:06:01;5.70;99.90
4366;DHT22;2196;47.422;9.656;2023-12-14T05:08:28;5.70;99.90
4366;DHT22;2196;47.422;9.656;2023-12-14T05:10:55;5.70;99.90
4366;DHT22;2196;47.422;9.656;2023-12-14T05:13:22;5.70;99.90
4366;DHT22;2196;47.422;9.656;2023-12-14T05:15:51;5.70;99.90
4366;DHT22;2196;47.422;9.656;2023-12-14T05:18:18;5.70;99.90
4366;DHT22;2196;47.422;9.656;2023-12-14T05:20:45;5.70;99.90
4366;DHT22;2196;47.422;9.656;2023-12-14T05:23:11;5.70;99.90
4366;DHT22;2196;47.422;9.656;2023-12-14T05:25:38;5.60;99.90
4366;DHT22;2196;47.422;9.656;2023-12-14T05:28:05;5.60;99.90
4366;DHT22;2196;47.422;9.656;2023-12-14T05:30:32;5.60;99.90
4366;DHT22;2196;47.422;9.656;2023-12-14T05:33:00;5.60;99.90
4366;DHT22;2196;47.422;9.656;2023-12-14T05:35:28;5.60;99.90
4366;DHT22;2196;47.422;9.656;2023-12-14T05:37:55;5.60;99.90
4366;DHT22;2196;47.422;9.656;2023-12-14T05:40:22;5.60;99.90
4366;DHT22;2196;47.422;9.656;2023-12-14T05:42:49;5.60;99.90
4366;DHT22;2196;47.422;9.656;2023-12-14T05:45:16;5.60;99.90
4366;DHT22;2196;47.422;9.656;2023-12-14T05:47:44;5.60;99.90
4366;DHT22;2196;47.422;9.656;2023-12-14T05:50:12;5.60;99.90
4366;DHT22;2196;47.422;9.656;2023-12-14T05:52:39;5.60;99.90
4366;DHT22;2196;47.422;9.656;2023-12-14T05:55:08;5.60;99.90
4366;DHT22;2196;47.422;9.656;2023-12-14T05:57:35;5.60;99.90
4366;DHT22;2196;47.422;9.656;2023-12-14T06:00:03;5.60;99.90
4366;DHT22;2196;47.422;9.656;2023-12-14T06:02:31;5.60;99.90
4366;DHT22;2196;47.422;9.656;2023-12-14T06:04:58;5.60;99.90
4366;DHT22;2196;47.422;9.656;2023-12-14T06:07:26;5.60;99.90
4366;DHT22;2196;47.422;9.656;2023-12-14T06:09:53;5.60;99.90
4366;DHT22;2196;47.422;9.656;2023-12-14T06:12:20;5.50;99.90
4366;DHT22;2196;47.422;9.656;2023-12-14T06:14:47;5.50;99.90
4366;DHT22;2196;47.422;9.656;2023-12-14T06:17:15;5.50;99.90
4366;DHT22;2196;47.422;9.656;2023-12-14T06:19:42;5.50;99.90
4366;DHT22;2196;47.422;9.656;2023-12-14T06:22:09;5.50;99.90
4366;DHT22;2196;47.422;9.656;2023-12-14T06:24:37;5.50;99.90
4366;DHT22;2196;47.422;9.656;2023-12-14T06:27:04;5.50;99.90
4366;DHT22;2196;47.422;9.656;2023-12-14T06:29:31;5.50;99.90
4366;DHT22;2196;47.422;9.656;2023-12-14T06:31:58;5.50;99.90
4366;DHT22;2196;47.422;9.656;2023-12-14T06:34:25;5.50;99.90
4366;DHT22;2196;47.422;9.656;2023-12-14T06:36:54;5.50;99.90
4366;DHT22;2196;47.422;9.656;2023-12-14T06:39:23;5.50;99.90
4366;DHT22;2196;47.422;9.656;2023-12-14T06:41:54;5.50;99.90
4366;DHT22;2196;47.422;9.656;2023-12-14T06:44:21;5.50;99.90
4366;DHT22;2196;47.422;9.656;2023-12-14T06:46:48;5.50;99.90
4366;DHT22;2196;47.422;9.656;2023-12-14T06:49:15;5.50;99.90
4366;DHT22;2196;47.422;9.656;2023-12-14T06:51:42;5.50;99.90
4366;DHT22;2196;47.422;9.656;2023-12-14T06:54:13;5.60;99.90
4366;DHT22;2196;47.422;9.656;2023-12-14T06:56:40;5.50;99.90
4366;DHT22;2196;47.422;9.656;2023-12-14T06:59:08;5.50;99.90
4366;DHT22;2196;47.422;9.656;2023-12-14T07:01:35;5.60;99.90
4366;DHT22;2196;47.422;9.656;2023-12-14T07:04:02;5.50;99.90
4366;DHT22;2196;47.422;9.656;2023-12-14T07:06:29;5.50;99.90
4366;DHT22;2196;47.422;9.656;2023-12-14T07:08:56;5.50;99.90
4366;DHT22;2196;47.422;9.656;2023-12-14T07:11:24;5.50;99.90
4366;DHT22;2196;47.422;9.656;2023-12-14T07:13:50;5.50;99.90
4366;DHT22;2196;47.422;9.656;2023-12-14T07:16:18;5.50;99.90
4366;DHT22;2196;47.422;9.656;2023-12-14T07:18:45;5.60;99.90
4366;DHT22;2196;47.422;9.656;2023-12-14T07:21:12;5.60;99.90
4366;DHT22;2196;47.422;9.656;2023-12-14T07:23:39;5.60;99.90
4366;DHT22;2196;47.422;9.656;2023-12-14T07:26:06;5.80;99.90
4366;DHT22;2196;47.422;9.656;2023-12-14T07:28:33;5.70;99.90
4366;DHT22;2196;47.422;9.656;2023-12-14T07:31:00;5.80;99.90
4366;DHT22;2196;47.422;9.656;2023-12-14T07:33:28;5.70;99.90
4366;DHT22;2196;47.422;9.656;2023-12-14T07:35:55;5.70;99.90
4366;DHT22;2196;47.422;9.656;2023-12-14T07:38:22;5.70;99.90
4366;DHT22;2196;47.422;9.656;2023-12-14T07:40:50;5.70;99.90
4366;DHT22;2196;47.422;9.656;2023-12-14T07:43:19;5.60;99.90
4366;DHT22;2196;47.422;9.656;2023-12-14T07:45:47;5.60;99.90
4366;DHT22;2196;47.422;9.656;2023-12-14T07:48:14;5.50;99.90
4366;DHT22;2196;47.422;9.656;2023-12-14T07:50:42;5.60;99.90
4366;DHT22;2196;47.422;9.656;2023-12-14T07:53:09;5.50;99.90
4366;DHT22;2196;47.422;9.656;2023-12-14T07:55:36;5.50;99.90
4366;DHT22;2196;47.422;9.656;2023-12-14T07:58:03;5.50;99.90
4366;DHT22;2196;47.422;9.656;2023-12-14T08:00:30;5.50;99.90
4366;DHT22;2196;47.422;9.656;2023-12-14T08:02:57;5.50;99.90
4366;DHT22;2196;47.422;9.656;2023-12-14T08:05:24;5.60;99.90
4366;DHT22;2196;47.422;9.656;2023-12-14T08:07:52;5.50;99.90
4366;DHT22;2196;47.422;9.656;2023-12-14T08:10:19;5.50;99.90
4366;DHT22;2196;47.422;9.656;2023-12-14T08:12:46;5.50;99.90
4366;DHT22;2196;47.422;9.656;2023-12-14T08:15:14;5.60;99.90
4366;DHT22;2196;47.422;9.656;2023-12-14T08:17:41;5.70;99.90
4366;DHT22;2196;47.422;9.656;2023-12-14T08:20:09;5.70;99.90
4366;DHT22;2196;47.422;9.656;2023-12-14T08:22:38;5.70;99.90
4366;DHT22;2196;47.422;9.656;2023-12-14T08:25:11;5.80;99.90
4366;DHT22;2196;47.422;9.656;2023-12-14T08:27:39;5.80;99.90
4366;DHT22;2196;47.422;9.656;2023-12-14T08:30:07;5.80;99.90
4366;DHT22;2196;47.422;9.656;2023-12-14T08:32:34;5.70;99.90
4366;DHT22;2196;47.422;9.656;2023-12-14T08:35:01;5.70;99.90
4366;DHT22;2196;47.422;9.656;2023-12-14T08:37:27;5.80;99.90
4366;DHT22;2196;47.422;9.656;2023-12-14T08:39:54;5.80;99.90
4366;DHT22;2196;47.422;9.656;2023-12-14T08:42:23;5.90;99.90
4366;DHT22;2196;47.422;9.656;2023-12-14T08:44:50;5.80;99.90
4366;DHT22;2196;47.422;9.656;2023-12-14T08:47:17;5.80;99.90
4366;DHT22;2196;47.422;9.656;2023-12-14T08:49:44;5.80;99.90
4366;DHT22;2196;47.422;9.656;2023-12-14T08:52:11;5.70;99.90
4366;DHT22;2196;47.422;9.656;2023-12-14T08:54:39;5.70;99.90
4366;DHT22;2196;47.422;9.656;2023-12-14T08:57:09;5.70;99.90
4366;DHT22;2196;47.422;9.656;2023-12-14T08:59:37;5.80;99.90
4366;DHT22;2196;47.422;9.656;2023-12-14T09:02:04;5.80;99.90
4366;DHT22;2196;47.422;9.656;2023-12-14T09:04:31;5.90;99.90
4366;DHT22;2196;47.422;9.656;2023-12-14T09:07:01;5.90;99.90
4366;DHT22;2196;47.422;9.656;2023-12-14T09:09:29;5.90;99.90
4366;DHT22;2196;47.422;9.656;2023-12-14T09:11:56;5.90;99.90
4366;DHT22;2196;47.422;9.656;2023-12-14T09:14:23;5.90;99.90
4366;DHT22;2196;47.422;9.656;2023-12-14T09:16:52;5.90;99.90
4366;DHT22;2196;47.422;9.656;2023-12-14T09:19:18;6.00;99.90
4366;DHT22;2196;47.422;9.656;2023-12-14T09:21:45;6.00;99.90
4366;DHT22;2196;47.422;9.656;2023-12-14T09:24:12;6.00;99.90
4366;DHT22;2196;47.422;9.656;2023-12-14T09:26:39;5.90;99.90
4366;DHT22;2196;47.422;9.656;2023-12-14T09:29:05;5.90;99.90
4366;DHT22;2196;47.422;9.656;2023-12-14T09:31:32;5.90;99.90
4366;DHT22;2196;47.422;9.656;2023-12-14T09:34:01;5.90;99.90
4366;DHT22;2196;47.422;9.656;2023-12-14T09:36:28;5.90;99.90
4366;DHT22;2196;47.422;9.656;2023-12-14T09:38:55;6.00;99.90
4366;DHT22;2196;47.422;9.656;2023-12-14T09:41:22;6.00;99.90
4366;DHT22;2196;47.422;9.656;2023-12-14T09:43:49;6.10;99.90
4366;DHT22;2196;47.422;9.656;2023-12-14T09:46:17;6.10;99.90
4366;DHT22;2196;47.422;9.656;2023-12-14T09:48:45;6.10;99.90
4366;DHT22;2196;47.422;9.656;2023-12-14T09:51:14;6.10;99.90
4366;DHT22;2196;47.422;9.656;2023-12-14T09:53:42;6.20;99.90
4366;DHT22;2196;47.422;9.656;2023-12-14T09:56:09;6.20;99.90
4366;DHT22;2196;47.422;9.656;2023-12-14T09:58:36;6.30;99.90
4366;DHT22;2196;47.422;9.656;2023-12-14T10:01:21;6.30;99.90
4366;DHT22;2196;47.422;9.656;2023-12-14T10:03:49;6.30;99.90
4366;DHT22;2196;47.422;9.656;2023-12-14T10:06:17;6.30;99.90
4366;DHT22;2196;47.422;9.656;2023-12-14T10:08:54;6.30;99.90
4366;DHT22;2196;47.422;9.656;2023-12-14T10:11:22;6.30;99.90
4366;DHT22;2196;47.422;9.656;2023-12-14T10:13:49;6.30;99.90
4366;DHT22;2196;47.422;9.656;2023-12-14T10:16:27;6.30;99.90
4366;DHT22;2196;47.422;9.656;2023-12-14T10:18:56;6.30;99.90
4366;DHT22;2196;47.422;9.656;2023-12-14T10:21:26;6.20;99.90
4366;DHT22;2196;47.422;9.656;2023-12-14T10:23:55;6.20;99.90
4366;DHT22;2196;47.422;9.656;2023-12-14T10:26:23;6.20;99.90
4366;DHT22;2196;47.422;9.656;2023-12-14T10:28:51;6.20;99.90
4366;DHT22;2196;47.422;9.656;2023-12-14T10:31:19;6.20;99.90
4366;DHT22;2196;47.422;9.656;2023-12-14T10:33:47;6.20;99.90
4366;DHT22;2196;47.422;9.656;2023-12-14T10:36:16;6.20;99.90
4366;DHT22;2196;47.422;9.656;2023-12-14T10:38:48;6.20;99.90
4366;DHT22;2196;47.422;9.656;2023-12-14T10:41:18;6.30;99.90
4366;DHT22;2196;47.422;9.656;2023-12-14T10:43:48;6.30;99.90
4366;DHT22;2196;47.422;9.656;2023-12-14T10:46:19;6.30;99.90
4366;DHT22;2196;47.422;9.656;2023-12-14T10:48:48;6.30;99.90
4366;DHT22;2196;47.422;9.656;2023-12-14T10:51:17;6.30;99.90
4366;DHT22;2196;47.422;9.656;2023-12-14T10:53:47;6.30;99.90
4366;DHT22;2196;47.422;9.656;2023-12-14T10:56:16;6.30;99.90
4366;DHT22;2196;47.422;9.656;2023-12-14T10:58:48;6.20;99.90
4366;DHT22;2196;47.422;9.656;2023-12-14T11:01:16;6.30;99.90
4366;DHT22;2196;47.422;9.656;2023-12-14T11:03:43;6.30;99.90
4366;DHT22;2196;47.422;9.656;2023-12-14T11:06:30;6.30;99.90
4366;DHT22;2196;47.422;9.656;2023-12-14T11:09:01;6.40;99.90
4366;DHT22;2196;47.422;9.656;2023-12-14T11:11:39;6.50;99.90
4366;DHT22;2196;47.422;9.656;2023-12-14T11:14:07;6.50;99.90
4366;DHT22;2196;47.422;9.656;2023-12-14T11:16:36;6.60;99.90
4366;DHT22;2196;47.422;9.656;2023-12-14T11:19:27;6.70;99.90
4366;DHT22;2196;47.422;9.656;2023-12-14T11:22:23;6.60;99.90
4366;DHT22;2196;47.422;9.656;2023-12-14T11:24:53;6.50;99.90
4366;DHT22;2196;47.422;9.656;2023-12-14T11:27:25;6.40;99.90
4366;DHT22;2196;47.422;9.656;2023-12-14T11:29:53;6.40;99.90
4366;DHT22;2196;47.422;9.656;2023-12-14T11:32:20;6.40;99.90
4366;DHT22;2196;47.422;9.656;2023-12-14T11:34:47;6.40;99.90
4366;DHT22;2196;47.422;9.656;2023-12-14T11:37:14;6.30;99.90
4366;DHT22;2196;47.422;9.656;2023-12-14T11:39:42;6.30;99.90
4366;DHT22;2196;47.422;9.656;2023-12-14T11:42:11;6.30;99.90
4366;DHT22;2196;47.422;9.656;2023-12-14T11:44:42;6.40;99.90
4366;DHT22;2196;47.422;9.656;2023-12-14T11:47:09;6.40;99.90
4366;DHT22;2196;47.422;9.656;2023-12-14T11:49:36;6.40;99.90
4366;DHT22;2196;47.422;9.656;2023-12-14T11:52:03;6.50;99.90
4366;DHT22;2196;47.422;9.656;2023-12-14T11:54:31;6.60;99.90
4366;DHT22;2196;47.422;9.656;2023-12-14T11:57:01;6.60;99.90
4366;DHT22;2196;47.422;9.656;2023-12-14T11:59:31;6.70;99.90
4366;DHT22;2196;47.422;9.656;2023-12-14T12:01:59;6.70;99.90
4366;DHT22;2196;47.422;9.656;2023-12-14T12:04:27;6.60;99.90
4366;DHT22;2196;47.422;9.656;2023-12-14T12:07:01;6.60;99.90
4366;DHT22;2196;47.422;9.656;2023-12-14T12:09:36;6.60;99.90
4366;DHT22;2196;47.422;9.656;2023-12-14T12:12:05;6.60;99.90
4366;DHT22;2196;47.422;9.656;2023-12-14T12:14:34;6.60;99.90
4366;DHT22;2196;47.422;9.656;2023-12-14T12:17:02;6.70;99.90
4366;DHT22;2196;47.422;9.656;2023-12-14T12:19:30;6.80;99.90
4366;DHT22;2196;47.422;9.656;2023-12-14T12:21:57;6.70;99.90
4366;DHT22;2196;47.422;9.656;2023-12-14T12:24:24;6.70;99.90
4366;DHT22;2196;47.422;9.656;2023-12-14T12:26:51;6.80;99.90
4366;DHT22;2196;47.422;9.656;2023-12-14T12:29:18;6.80;99.90
4366;DHT22;2196;47.422;9.656;2023-12-14T12:31:50;6.70;99.90
4366;DHT22;2196;47.422;9.656;2023-12-14T12:34:17;6.80;99.90
4366;DHT22;2196;47.422;9.656;2023-12-14T12:36:48;6.80;99.90
4366;DHT22;2196;47.422;9.656;2023-12-14T12:39:15;6.80;99.90
4366;DHT22;2196;47.422;9.656;2023-12-14T12:41:42;6.80;99.90
4366;DHT22;2196;47.422;9.656;2023-12-14T12:44:13;6.80;99.90
4366;DHT22;2196;47.422;9.656;2023-12-14T12:46:40;6.80;99.90
4366;DHT22;2196;47.422;9.656;2023-12-14T12:49:08;6.90;99.90
4366;DHT22;2196;47.422;9.656;2023-12-14T12:51:35;6.90;99.90
4366;DHT22;2196;47.422;9.656;2023-12-14T12:54:02;6.90;99.90
4366;DHT22;2196;47.422;9.656;2023-12-14T12:56:29;7.00;99.90
4366;DHT22;2196;47.422;9.656;2023-12-14T12:58:57;7.00;99.90
4366;DHT22;2196;47.422;9.656;2023-12-14T13:01:24;7.00;99.90
4366;DHT22;2196;47.422;9.656;2023-12-14T13:03:53;7.00;99.90
4366;DHT22;2196;47.422;9.656;2023-12-14T13:06:23;7.00;99.90
4366;DHT22;2196;47.422;9.656;2023-12-14T13:08:51;7.00;99.90
4366;DHT22;2196;47.422;9.656;2023-12-14T13:11:17;7.00;99.90
4366;DHT22;2196;47.422;9.656;2023-12-14T13:13:44;7.00;99.90
4366;DHT22;2196;47.422;9.656;2023-12-14T13:16:11;6.90;99.90
4366;DHT22;2196;47.422;9.656;2023-12-14T13:18:40;6.90;99.90
4366;DHT22;2196;47.422;9.656;2023-12-14T13:21:07;6.90;99.90
4366;DHT22;2196;47.422;9.656;2023-12-14T13:23:35;6.90;99.90
4366;DHT22;2196;47.422;9.656;2023-12-14T13:26:02;6.80;99.90
4366;DHT22;2196;47.422;9.656;2023-12-14T13:28:29;6.90;99.90
4366;DHT22;2196;47.422;9.656;2023-12-14T13:30:56;7.20;99.90
4366;DHT22;2196;47.422;9.656;2023-12-14T13:33:23;7.00;99.90
4366;DHT22;2196;47.422;9.656;2023-12-14T13:35:49;6.90;99.90
4366;DHT22;2196;47.422;9.656;2023-12-14T13:38:16;6.90;99.90
4366;DHT22;2196;47.422;9.656;2023-12-14T13:40:45;6.90;99.90
4366;DHT22;2196;47.422;9.656;2023-12-14T13:43:12;6.80;99.90
4366;DHT22;2196;47.422;9.656;2023-12-14T13:45:41;6.80;99.90
4366;DHT22;2196;47.422;9.656;2023-12-14T13:48:09;6.90;99.90
4366;DHT22;2196;47.422;9.656;2023-12-14T13:50:36;6.90;99.90
4366;DHT22;2196;47.422;9.656;2023-12-14T13:53:03;6.80;99.90
4366;DHT22;2196;47.422;9.656;2023-12-14T13:55:31;6.80;99.90
4366;DHT22;2196;47.422;9.656;2023-12-14T13:57:59;6.70;99.90
4366;DHT22;2196;47.422;9.656;2023-12-14T14:00:27;6.70;99.90
4366;DHT22;2196;47.422;9.656;2023-12-14T14:02:54;6.70;99.90
4366;DHT22;2196;47.422;9.656;2023-12-14T14:05:21;6.70;99.90
4366;DHT22;2196;47.422;9.656;2023-12-14T14:07:48;6.80;99.90
4366;DHT22;2196;47.422;9.656;2023-12-14T14:10:16;6.80;99.90
4366;DHT22;2196;47.422;9.656;2023-12-14T14:12:43;6.70;99.90
4366;DHT22;2196;47.422;9.656;2023-12-14T14:15:11;6.70;99.90
4366;DHT22;2196;47.422;9.656;2023-12-14T14:17:38;6.70;99.90
4366;DHT22;2196;47.422;9.656;2023-12-14T14:20:06;6.80;99.90
4366;DHT22;2196;47.422;9.656;2023-12-14T14:22:35;6.80;99.90
4366;DHT22;2196;47.422;9.656;2023-12-14T14:25:03;6.70;99.90
4366;DHT22;2196;47.422;9.656;2023-12-14T14:27:31;6.70;99.90
4366;DHT22;2196;47.422;9.656;2023-12-14T14:29:58;6.70;99.90
4366;DHT22;2196;47.422;9.656;2023-12-14T14:32:27;6.60;99.90
4366;DHT22;2196;47.422;9.656;2023-12-14T14:34:57;6.70;99.90
4366;DHT22;2196;47.422;9.656;2023-12-14T14:37:24;6.70;99.90
4366;DHT22;2196;47.422;9.656;2023-12-14T14:39:51;6.70;99.90
4366;DHT22;2196;47.422;9.656;2023-12-14T14:42:18;6.80;99.90
4366;DHT22;2196;47.422;9.656;2023-12-14T14:44:45;6.80;99.90
4366;DHT22;2196;47.422;9.656;2023-12-14T14:47:12;6.80;99.90
4366;DHT22;2196;47.422;9.656;2023-12-14T14:49:41;6.80;99.90
4366;DHT22;2196;47.422;9.656;2023-12-14T14:52:08;6.80;99.90
4366;DHT22;2196;47.422;9.656;2023-12-14T14:54:35;6.80;99.90
4366;DHT22;2196;47.422;9.656;2023-12-14T14:57:02;6.80;99.90
4366;DHT22;2196;47.422;9.656;2023-12-14T14:59:30;6.80;99.90
4366;DHT22;2196;47.422;9.656;2023-12-14T15:01:57;6.70;99.90
4366;DHT22;2196;47.422;9.656;2023-12-14T15:04:25;6.70;99.90
4366;DHT22;2196;47.422;9.656;2023-12-14T15:06:54;6.60;99.90
4366;DHT22;2196;47.422;9.656;2023-12-14T15:09:21;6.60;99.90
4366;DHT22;2196;47.422;9.656;2023-12-14T15:11:51;6.60;99.90
4366;DHT22;2196;47.422;9.656;2023-12-14T15:14:18;6.70;99.90
4366;DHT22;2196;47.422;9.656;2023-12-14T15:16:45;6.60;99.90
4366;DHT22;2196;47.422;9.656;2023-12-14T15:19:13;6.70;99.90
4366;DHT22;2196;47.422;9.656;2023-12-14T15:21:40;6.60;99.90
4366;DHT22;2196;47.422;9.656;2023-12-14T15:24:08;6.60;99.90
4366;DHT22;2196;47.422;9.656;2023-12-14T15:26:35;6.60;99.90
4366;DHT22;2196;47.422;9.656;2023-12-14T15:29:02;6.60;99.90
4366;DHT22;2196;47.422;9.656;2023-12-14T15:31:29;6.50;99.90
4366;DHT22;2196;47.422;9.656;2023-12-14T15:33:56;6.70;99.90
4366;DHT22;2196;47.422;9.656;2023-12-14T15:36:23;6.80;99.90
4366;DHT22;2196;47.422;9.656;2023-12-14T15:38:50;6.90;99.90
4366;DHT22;2196;47.422;9.656;2023-12-14T15:41:18;6.80;99.90
4366;DHT22;2196;47.422;9.656;2023-12-14T15:43:45;6.70;99.90
4366;DHT22;2196;47.422;9.656;2023-12-14T15:46:12;6.60;99.90
4366;DHT22;2196;47.422;9.656;2023-12-14T15:48:39;6.50;99.90
4366;DHT22;2196;47.422;9.656;2023-12-14T15:51:08;6.40;99.90
4366;DHT22;2196;47.422;9.656;2023-12-14T15:53:33;6.30;99.90
4366;DHT22;2196;47.422;9.656;2023-12-14T15:56:01;6.30;99.90
4366;DHT22;2196;47.422;9.656;2023-12-14T15:58:29;6.30;99.90
4366;DHT22;2196;47.422;9.656;2023-12-14T16:00:56;6.30;99.90
4366;DHT22;2196;47.422;9.656;2023-12-14T16:03:23;6.30;99.90
4366;DHT22;2196;47.422;9.656;2023-12-14T16:05:50;6.40;99.90
4366;DHT22;2196;47.422;9.656;2023-12-14T16:08:17;6.30;99.90
4366;DHT22;2196;47.422;9.656;2023-12-14T16:10:44;6.40;99.90
4366;DHT22;2196;47.422;9.656;2023-12-14T16:13:13;6.40;99.90
4366;DHT22;2196;47.422;9.656;2023-12-14T16:15:41;6.50;99.90
4366;DHT22;2196;47.422;9.656;2023-12-14T16:18:08;6.50;99.90
4366;DHT22;2196;47.422;9.656;2023-12-14T16:20:37;6.40;99.90